Flight Track Log - Related Links

Times and Time Zones

All times are in EDT time to prevent confusion due to time zone crossing. See the UAL3832 flight status page for this flight to view local times or setup timezone preferences in your user account.

Time Position Orientation Groundspeed Altitude Reporting Facility
EDT Latitude Longitude Course Direction KTS MPH feet Rate Location/Type
Thu 02:28:40 PM 40.6333 -74.2000 27° Northeast 197 227 2,800  Level New York TRACON
Thu 02:29:34 PM 40.6500 -74.2833 285° West 256 295 4,400 1,684 Climbing New York TRACON
Thu 02:30:34 PM 40.7000 -74.3333 323° Northwest 277 319 6,000 1,350 Climbing New York TRACON
Thu 02:31:00 PM 40.9576 -73.8591 37° Northeast  Level FlightAware Approximate
Thu 02:31:34 PM 40.7333 -74.2667 57° Northeast 246 283 7,100  Level New York TRACON
Thu 02:32:00 PM 41.0308 -73.7820 40° Northeast  Level FlightAware Approximate
Thu 02:33:00 PM 41.1022 -73.7018 40° Northeast  Level FlightAware Approximate
Thu 02:33:20 PM 40.8119 -74.1431 50° Northeast 262 302 10,900  Level Boston Center
Thu 02:34:00 PM 41.1803 -73.6354 27° Northeast  Level FlightAware Approximate
Thu 02:34:20 PM 40.8550 -74.0564 57° Northeast 268 308 11,800  Level Boston Center
Thu 02:35:32 PM 40.9022 -73.9503 59° Northeast 298 343 12,000 409 Climbing Boston Center
Thu 02:36:32 PM 40.9869 -73.8453 43° Northeast 333 383 12,700 1,200 Climbing Boston Center
Thu 02:37:32 PM 41.0694 -73.7478 42° Northeast 346 398 14,400 1,500 Climbing Boston Center
Thu 02:38:32 PM 41.1369 -73.6747 39° Northeast 346 398 15,700 1,045 Climbing Boston Center
Thu 02:39:44 PM 41.2233 -73.5853 38° Northeast 351 404 16,700 955 Climbing Boston Center
Thu 02:40:44 PM 41.3181 -73.4847 39° Northeast 351 404 17,800 800 Climbing Boston Center
Thu 02:41:44 PM 41.3897 -73.4083 39° Northeast 351 404 18,300 650 Climbing Boston Center
Thu 02:42:44 PM 41.4758 -73.3294 34° Northeast 357 411 19,100 867 Climbing Boston Center
Thu 02:44:44 PM 41.6697 -73.3183 North 349 402 20,900 633 Climbing Boston Center
Thu 02:45:44 PM 41.7989 -73.3228 359° North 369 425 21,000 50 Climbing Boston Center
Thu 02:46:44 PM 41.9092 -73.3244 359° North 382 440 21,000  Level Boston Center
Thu 02:47:44 PM 42.0175 -73.3286 358° North 382 440 21,000  Level Boston Center
Thu 02:48:44 PM 42.1258 -73.3303 359° North 382 440 21,000  Level Boston Center
Thu 02:49:44 PM 42.2364 -73.3347 358° North 382 440 21,000  Level Boston Center
Thu 02:50:44 PM 42.3219 -73.3275 North 382 440 21,000  Level Boston Center
Thu 02:51:44 PM 42.4186 -73.2106 42° Northeast 377 434 21,000  Level Boston Center
Thu 02:52:44 PM 42.4819 -73.0931 54° Northeast 365 420 21,000  Level Boston Center
Thu 02:53:44 PM 42.5450 -72.9669 56° Northeast 378 435 21,000  Level Boston Center
Thu 02:54:44 PM 42.6081 -72.8519 53° Northeast 388 447 21,000  Level Boston Center
Thu 02:55:44 PM 42.6689 -72.7197 58° Northeast 394 453 21,000  Level Boston Center
Thu 02:56:44 PM 42.7464 -72.5900 51° Northeast 400 460 21,000  Level Boston Center
Thu 02:57:44 PM 42.8089 -72.4683 55° Northeast 395 455 21,000 -50 Level Boston Center
Thu 02:58:44 PM 42.8608 -72.3692 54° Northeast 400 460 20,900  Descending Boston Center
Thu 02:59:44 PM 42.9211 -72.2361 58° Northeast 395 455 21,000 50 Climbing Boston Center
Thu 03:00:44 PM 42.9814 -72.1167 55° Northeast 384 442 21,000  Level Boston Center
Thu 03:01:44 PM 43.0436 -71.9969 55° Northeast 384 442 21,000  Level Boston Center
Thu 03:02:44 PM 43.1033 -71.8742 56° Northeast 384 442 21,000 -500 Level Boston Center
Thu 03:03:44 PM 43.1631 -71.7542 56° Northeast 379 436 20,000 -1,250 Descending Boston Center
Thu 03:04:44 PM 43.2208 -71.6394 55° Northeast 372 428 18,500 -1,500 Descending Boston Center
Thu 03:05:44 PM 43.2825 -71.5161 55° Northeast 360 414 17,000 -1,650 Descending Boston Center
Thu 03:06:44 PM 43.3294 -71.4156 57° Northeast 353 406 15,200 -1,850 Descending Boston Center
Thu 03:07:44 PM 43.3825 -71.3089 56° Northeast 348 400 13,300 -1,818 Descending Boston Center
Thu 03:08:56 PM 43.4419 -71.1906 55° Northeast 343 395 11,200 -1,045 Descending Boston Center
Thu 03:09:56 PM 43.4883 -71.0550 65° Northeast 348 400 11,000 -300 Descending Boston Center
Thu 03:10:56 PM 43.5261 -70.9281 68° East 336 387 10,600 -800 Descending Boston Center
Thu 03:11:56 PM 43.5542 -70.8386 67° East 293 337 9,400 -1,700 Descending Boston Center
Thu 03:12:56 PM 43.5819 -70.7492 67° East 259 298 7,200 -2,150 Descending Boston Center
Thu 03:13:56 PM 43.6097 -70.6508 69° East 250 288 5,100 -1,850 Descending Boston Center
Thu 03:14:56 PM 43.6336 -70.5756 66° East 244 281 3,500 -1,600 Descending Boston Center

Login

Don't have an account? Register now (free) for customized features, flight alerts, and more!